sensor_id;sensor_type;location;lat;lon;timestamp;temperature;humidity
4566;DHT22;2295;51.050;14.608;2022-07-01T00:01:42;17.60;99.90
4566;DHT22;2295;51.050;14.608;2022-07-01T00:04:11;17.70;99.90
4566;DHT22;2295;51.050;14.608;2022-07-01T00:06:39;17.70;99.90
4566;DHT22;2295;51.050;14.608;2022-07-01T00:09:07;17.60;99.90
4566;DHT22;2295;51.050;14.608;2022-07-01T00:11:36;18.20;99.90
4566;DHT22;2295;51.050;14.608;2022-07-01T00:14:05;17.50;99.90
4566;DHT22;2295;51.050;14.608;2022-07-01T00:16:33;17.50;99.90
4566;DHT22;2295;51.050;14.608;2022-07-01T00:19:03;16.80;99.90
4566;DHT22;2295;51.050;14.608;2022-07-01T00:21:31;18.10;99.90
4566;DHT22;2295;51.050;14.608;2022-07-01T00:23:59;17.70;99.90
4566;DHT22;2295;51.050;14.608;2022-07-01T00:26:28;17.70;99.90
4566;DHT22;2295;51.050;14.608;2022-07-01T00:28:56;17.70;99.90
4566;DHT22;2295;51.050;14.608;2022-07-01T00:31:26;17.70;99.90
4566;DHT22;2295;51.050;14.608;2022-07-01T00:33:54;16.90;99.90
4566;DHT22;2295;51.050;14.608;2022-07-01T00:36:22;17.80;99.90
4566;DHT22;2295;51.050;14.608;2022-07-01T00:38:56;16.90;99.90
4566;DHT22;2295;51.050;14.608;2022-07-01T00:41:24;17.80;99.90
4566;DHT22;2295;51.050;14.608;2022-07-01T00:46:22;17.80;99.90
4566;DHT22;2295;51.050;14.608;2022-07-01T00:48:55;16.70;99.90
4566;DHT22;2295;51.050;14.608;2022-07-01T00:51:24;17.50;99.90
4566;DHT22;2295;51.050;14.608;2022-07-01T00:53:53;17.80;99.90
4566;DHT22;2295;51.050;14.608;2022-07-01T00:56:21;16.60;99.90
4566;DHT22;2295;51.050;14.608;2022-07-01T00:58:50;17.50;99.90
4566;DHT22;2295;51.050;14.608;2022-07-01T01:01:18;17.10;99.90
4566;DHT22;2295;51.050;14.608;2022-07-01T01:03:48;17.20;99.90
4566;DHT22;2295;51.050;14.608;2022-07-01T01:06:18;17.50;99.90
4566;DHT22;2295;51.050;14.608;2022-07-01T01:08:46;17.50;99.90
4566;DHT22;2295;51.050;14.608;2022-07-01T01:11:16;18.60;99.90
4566;DHT22;2295;51.050;14.608;2022-07-01T01:13:44;17.40;99.90
4566;DHT22;2295;51.050;14.608;2022-07-01T01:16:19;17.30;99.90
4566;DHT22;2295;51.050;14.608;2022-07-01T01:18:48;17.20;99.90
4566;DHT22;2295;51.050;14.608;2022-07-01T01:21:18;17.20;99.90
4566;DHT22;2295;51.050;14.608;2022-07-01T01:23:46;16.80;99.90
4566;DHT22;2295;51.050;14.608;2022-07-01T01:26:17;17.00;99.90
4566;DHT22;2295;51.050;14.608;2022-07-01T01:28:45;17.00;99.90
4566;DHT22;2295;51.050;14.608;2022-07-01T01:31:14;17.10;99.90
4566;DHT22;2295;51.050;14.608;2022-07-01T01:33:42;17.30;99.90
4566;DHT22;2295;51.050;14.608;2022-07-01T01:36:11;17.20;99.90
4566;DHT22;2295;51.050;14.608;2022-07-01T01:38:41;17.20;99.90
4566;DHT22;2295;51.050;14.608;2022-07-01T01:41:09;17.20;99.90
4566;DHT22;2295;51.050;14.608;2022-07-01T01:43:37;17.30;99.90
4566;DHT22;2295;51.050;14.608;2022-07-01T01:46:05;17.30;99.90
4566;DHT22;2295;51.050;14.608;2022-07-01T01:48:34;17.60;99.90
4566;DHT22;2295;51.050;14.608;2022-07-01T01:51:02;16.80;99.90
4566;DHT22;2295;51.050;14.608;2022-07-01T01:53:30;16.60;99.90
4566;DHT22;2295;51.050;14.608;2022-07-01T01:56:00;17.40;99.90
4566;DHT22;2295;51.050;14.608;2022-07-01T01:58:28;17.10;99.90
4566;DHT22;2295;51.050;14.608;2022-07-01T02:00:56;17.10;99.90
4566;DHT22;2295;51.050;14.608;2022-07-01T02:03:24;17.30;99.90
4566;DHT22;2295;51.050;14.608;2022-07-01T02:05:53;17.10;99.90
4566;DHT22;2295;51.050;14.608;2022-07-01T02:08:21;16.80;99.90
4566;DHT22;2295;51.050;14.608;2022-07-01T02:10:49;17.10;99.90
4566;DHT22;2295;51.050;14.608;2022-07-01T02:13:22;17.10;99.90
4566;DHT22;2295;51.050;14.608;2022-07-01T02:15:50;16.80;99.90
4566;DHT22;2295;51.050;14.608;2022-07-01T02:18:18;17.40;99.90
4566;DHT22;2295;51.050;14.608;2022-07-01T02:20:46;17.40;99.90
4566;DHT22;2295;51.050;14.608;2022-07-01T02:23:15;16.50;99.90
4566;DHT22;2295;51.050;14.608;2022-07-01T02:25:43;16.60;99.90
4566;DHT22;2295;51.050;14.608;2022-07-01T02:28:13;17.20;99.90
4566;DHT22;2295;51.050;14.608;2022-07-01T02:30:42;17.00;99.90
4566;DHT22;2295;51.050;14.608;2022-07-01T02:33:10;17.00;99.90
4566;DHT22;2295;51.050;14.608;2022-07-01T02:35:40;17.00;99.90
4566;DHT22;2295;51.050;14.608;2022-07-01T02:38:15;16.80;99.90
4566;DHT22;2295;51.050;14.608;2022-07-01T02:40:43;17.00;99.90
4566;DHT22;2295;51.050;14.608;2022-07-01T02:43:11;16.80;99.90
4566;DHT22;2295;51.050;14.608;2022-07-01T02:45:42;17.00;99.90
4566;DHT22;2295;51.050;14.608;2022-07-01T02:48:10;16.90;99.90
4566;DHT22;2295;51.050;14.608;2022-07-01T02:50:38;16.90;99.90
4566;DHT22;2295;51.050;14.608;2022-07-01T02:53:06;16.90;99.90
4566;DHT22;2295;51.050;14.608;2022-07-01T02:55:34;16.90;99.90
4566;DHT22;2295;51.050;14.608;2022-07-01T02:58:03;17.00;99.90
4566;DHT22;2295;51.050;14.608;2022-07-01T03:00:31;16.90;99.90
4566;DHT22;2295;51.050;14.608;2022-07-01T03:03:01;16.90;99.90
4566;DHT22;2295;51.050;14.608;2022-07-01T03:05:29;16.90;99.90
4566;DHT22;2295;51.050;14.608;2022-07-01T05:03:52;16.70;99.90
4566;DHT22;2295;51.050;14.608;2022-07-01T05:06:20;21.20;99.90
4566;DHT22;2295;51.050;14.608;2022-07-01T05:08:48;21.60;99.90
4566;DHT22;2295;51.050;14.608;2022-07-01T05:13:45;22.30;99.90
4566;DHT22;2295;51.050;14.608;2022-07-01T05:16:13;22.80;99.90
4566;DHT22;2295;51.050;14.608;2022-07-01T05:18:43;23.50;99.90
4566;DHT22;2295;51.050;14.608;2022-07-01T05:21:29;24.20;99.90
4566;DHT22;2295;51.050;14.608;2022-07-01T05:24:15;24.70;99.90
4566;DHT22;2295;51.050;14.608;2022-07-01T05:26:43;25.30;99.90
4566;DHT22;2295;51.050;14.608;2022-07-01T05:29:12;26.00;99.90
4566;DHT22;2295;51.050;14.608;2022-07-01T05:31:40;26.60;99.90
4566;DHT22;2295;51.050;14.608;2022-07-01T05:34:09;27.10;99.90
4566;DHT22;2295;51.050;14.608;2022-07-01T05:36:38;27.30;99.90
4566;DHT22;2295;51.050;14.608;2022-07-01T05:39:06;27.80;99.90
4566;DHT22;2295;51.050;14.608;2022-07-01T05:41:35;28.10;99.90
4566;DHT22;2295;51.050;14.608;2022-07-01T05:44:03;28.50;99.90
4566;DHT22;2295;51.050;14.608;2022-07-01T05:46:32;29.10;99.90
4566;DHT22;2295;51.050;14.608;2022-07-01T05:49:00;29.50;99.90
4566;DHT22;2295;51.050;14.608;2022-07-01T05:51:30;30.30;99.90
4566;DHT22;2295;51.050;14.608;2022-07-01T05:53:58;30.80;99.90
4566;DHT22;2295;51.050;14.608;2022-07-01T05:56:26;30.70;99.90
4566;DHT22;2295;51.050;14.608;2022-07-01T05:58:54;30.90;99.90
4566;DHT22;2295;51.050;14.608;2022-07-01T06:01:22;31.10;99.90
4566;DHT22;2295;51.050;14.608;2022-07-01T06:03:51;31.20;99.90
4566;DHT22;2295;51.050;14.608;2022-07-01T06:06:19;31.60;99.90
4566;DHT22;2295;51.050;14.608;2022-07-01T06:08:49;31.70;99.90
4566;DHT22;2295;51.050;14.608;2022-07-01T06:11:17;31.90;99.90
4566;DHT22;2295;51.050;14.608;2022-07-01T06:13:45;32.40;99.90
4566;DHT22;2295;51.050;14.608;2022-07-01T06:16:13;33.00;99.90
4566;DHT22;2295;51.050;14.608;2022-07-01T06:18:41;32.90;99.90
4566;DHT22;2295;51.050;14.608;2022-07-01T06:21:10;32.50;99.90
4566;DHT22;2295;51.050;14.608;2022-07-01T06:23:38;32.10;99.90
4566;DHT22;2295;51.050;14.608;2022-07-01T06:26:07;32.20;99.90
4566;DHT22;2295;51.050;14.608;2022-07-01T06:28:35;32.00;99.90
4566;DHT22;2295;51.050;14.608;2022-07-01T06:31:04;32.00;99.90
4566;DHT22;2295;51.050;14.608;2022-07-01T06:33:32;31.60;99.90
4566;DHT22;2295;51.050;14.608;2022-07-01T06:36:00;31.80;99.90
4566;DHT22;2295;51.050;14.608;2022-07-01T06:38:28;31.40;99.90
4566;DHT22;2295;51.050;14.608;2022-07-01T06:40:57;31.50;99.90
4566;DHT22;2295;51.050;14.608;2022-07-01T06:43:44;31.10;99.90
4566;DHT22;2295;51.050;14.608;2022-07-01T06:46:12;30.90;99.90
4566;DHT22;2295;51.050;14.608;2022-07-01T06:48:41;31.00;99.90
4566;DHT22;2295;51.050;14.608;2022-07-01T06:51:09;31.00;99.90
4566;DHT22;2295;51.050;14.608;2022-07-01T06:53:37;31.10;99.90
4566;DHT22;2295;51.050;14.608;2022-07-01T06:56:05;31.30;99.90
4566;DHT22;2295;51.050;14.608;2022-07-01T06:58:34;32.00;99.90
4566;DHT22;2295;51.050;14.608;2022-07-01T07:01:04;32.20;99.90
4566;DHT22;2295;51.050;14.608;2022-07-01T07:03:32;31.60;99.90
4566;DHT22;2295;51.050;14.608;2022-07-01T07:06:01;31.30;99.90
4566;DHT22;2295;51.050;14.608;2022-07-01T07:08:31;31.50;99.90
4566;DHT22;2295;51.050;14.608;2022-07-01T07:10:59;32.20;99.90
4566;DHT22;2295;51.050;14.608;2022-07-01T07:13:27;32.20;99.90
4566;DHT22;2295;51.050;14.608;2022-07-01T07:15:55;32.10;99.90
4566;DHT22;2295;51.050;14.608;2022-07-01T07:18:25;32.50;99.90
4566;DHT22;2295;51.050;14.608;2022-07-01T07:20:54;33.10;99.90
4566;DHT22;2295;51.050;14.608;2022-07-01T07:23:26;33.80;99.20
4566;DHT22;2295;51.050;14.608;2022-07-01T07:25:54;34.30;96.90
4566;DHT22;2295;51.050;14.608;2022-07-01T07:28:23;34.40;98.30
4566;DHT22;2295;51.050;14.608;2022-07-01T07:30:51;34.20;97.30
4566;DHT22;2295;51.050;14.608;2022-07-01T07:33:20;34.10;96.60
4566;DHT22;2295;51.050;14.608;2022-07-01T07:35:49;34.10;95.20
4566;DHT22;2295;51.050;14.608;2022-07-01T07:38:17;34.20;93.50
4566;DHT22;2295;51.050;14.608;2022-07-01T07:40:46;33.40;88.50
4566;DHT22;2295;51.050;14.608;2022-07-01T07:43:14;33.40;90.20
4566;DHT22;2295;51.050;14.608;2022-07-01T07:45:42;33.70;90.80
4566;DHT22;2295;51.050;14.608;2022-07-01T07:48:10;33.20;90.10
4566;DHT22;2295;51.050;14.608;2022-07-01T07:50:39;33.10;91.00
4566;DHT22;2295;51.050;14.608;2022-07-01T07:53:08;33.40;91.30
4566;DHT22;2295;51.050;14.608;2022-07-01T07:55:39;33.90;90.20
4566;DHT22;2295;51.050;14.608;2022-07-01T07:58:07;34.20;90.20
4566;DHT22;2295;51.050;14.608;2022-07-01T08:00:35;34.40;84.00
4566;DHT22;2295;51.050;14.608;2022-07-01T08:03:06;34.60;86.40
4566;DHT22;2295;51.050;14.608;2022-07-01T08:05:35;34.50;89.90
4566;DHT22;2295;51.050;14.608;2022-07-01T08:08:03;34.40;90.50
4566;DHT22;2295;51.050;14.608;2022-07-01T08:10:33;34.80;90.40
4566;DHT22;2295;51.050;14.608;2022-07-01T08:13:01;34.80;86.40
4566;DHT22;2295;51.050;14.608;2022-07-01T08:15:31;34.50;89.70
4566;DHT22;2295;51.050;14.608;2022-07-01T08:18:00;34.30;87.40
4566;DHT22;2295;51.050;14.608;2022-07-01T08:20:28;34.00;84.90
4566;DHT22;2295;51.050;14.608;2022-07-01T08:22:57;33.90;88.40
4566;DHT22;2295;51.050;14.608;2022-07-01T08:25:25;34.00;87.70
4566;DHT22;2295;51.050;14.608;2022-07-01T08:28:02;34.00;85.50
4566;DHT22;2295;51.050;14.608;2022-07-01T08:30:30;33.90;90.00
4566;DHT22;2295;51.050;14.608;2022-07-01T08:32:59;34.30;87.40
4566;DHT22;2295;51.050;14.608;2022-07-01T08:35:28;34.70;86.60
4566;DHT22;2295;51.050;14.608;2022-07-01T08:37:56;34.20;88.70
4566;DHT22;2295;51.050;14.608;2022-07-01T08:40:25;33.20;87.50
4566;DHT22;2295;51.050;14.608;2022-07-01T08:42:58;31.80;92.70
4566;DHT22;2295;51.050;14.608;2022-07-01T08:45:29;30.70;97.10
4566;DHT22;2295;51.050;14.608;2022-07-01T08:47:59;30.10;97.00
4566;DHT22;2295;51.050;14.608;2022-07-01T08:50:30;29.30;99.90
4566;DHT22;2295;51.050;14.608;2022-07-01T08:52:59;28.50;99.90
4566;DHT22;2295;51.050;14.608;2022-07-01T08:55:27;27.90;99.90
4566;DHT22;2295;51.050;14.608;2022-07-01T08:57:55;27.80;99.90
4566;DHT22;2295;51.050;14.608;2022-07-01T09:00:31;27.70;99.90
4566;DHT22;2295;51.050;14.608;2022-07-01T09:03:01;28.10;99.90
4566;DHT22;2295;51.050;14.608;2022-07-01T09:05:31;27.70;99.90
4566;DHT22;2295;51.050;14.608;2022-07-01T09:08:01;27.30;99.90
4566;DHT22;2295;51.050;14.608;2022-07-01T09:10:31;28.10;99.90
4566;DHT22;2295;51.050;14.608;2022-07-01T09:13:04;29.00;99.90
4566;DHT22;2295;51.050;14.608;2022-07-01T09:15:37;29.70;99.90
4566;DHT22;2295;51.050;14.608;2022-07-01T09:18:10;28.80;99.90
4566;DHT22;2295;51.050;14.608;2022-07-01T09:20:40;28.30;99.90
4566;DHT22;2295;51.050;14.608;2022-07-01T09:23:10;28.60;99.90
4566;DHT22;2295;51.050;14.608;2022-07-01T09:25:41;28.80;99.90
4566;DHT22;2295;51.050;14.608;2022-07-01T09:28:20;27.90;99.90
4566;DHT22;2295;51.050;14.608;2022-07-01T09:30:52;27.70;99.90
4566;DHT22;2295;51.050;14.608;2022-07-01T09:33:22;27.90;99.90
4566;DHT22;2295;51.050;14.608;2022-07-01T09:35:51;27.80;99.90
4566;DHT22;2295;51.050;14.608;2022-07-01T09:38:21;27.90;99.90
4566;DHT22;2295;51.050;14.608;2022-07-01T09:41:00;27.60;99.90
4566;DHT22;2295;51.050;14.608;2022-07-01T09:43:30;27.10;99.90
4566;DHT22;2295;51.050;14.608;2022-07-01T09:46:02;27.30;99.90
4566;DHT22;2295;51.050;14.608;2022-07-01T09:48:45;27.60;99.90
4566;DHT22;2295;51.050;14.608;2022-07-01T09:51:15;28.30;99.90
4566;DHT22;2295;51.050;14.608;2022-07-01T09:53:44;28.40;99.90
4566;DHT22;2295;51.050;14.608;2022-07-01T09:56:12;28.20;99.90
4566;DHT22;2295;51.050;14.608;2022-07-01T09:58:41;27.50;99.90
4566;DHT22;2295;51.050;14.608;2022-07-01T10:01:13;27.20;99.90
4566;DHT22;2295;51.050;14.608;2022-07-01T10:03:43;26.80;99.90
4566;DHT22;2295;51.050;14.608;2022-07-01T10:06:42;26.50;99.90
4566;DHT22;2295;51.050;14.608;2022-07-01T10:09:24;26.90;99.90
4566;DHT22;2295;51.050;14.608;2022-07-01T10:15:02;28.00;99.90
4566;DHT22;2295;51.050;14.608;2022-07-01T10:17:35;28.00;99.90
4566;DHT22;2295;51.050;14.608;2022-07-01T10:20:10;27.10;99.90
4566;DHT22;2295;51.050;14.608;2022-07-01T10:22:40;26.30;99.90
4566;DHT22;2295;51.050;14.608;2022-07-01T10:25:31;26.10;99.90
4566;DHT22;2295;51.050;14.608;2022-07-01T10:28:27;26.00;99.90
4566;DHT22;2295;51.050;14.608;2022-07-01T10:31:03;25.90;99.90
4566;DHT22;2295;51.050;14.608;2022-07-01T10:33:40;25.50;99.90
4566;DHT22;2295;51.050;14.608;2022-07-01T10:36:10;25.00;99.90
4566;DHT22;2295;51.050;14.608;2022-07-01T10:39:10;24.90;99.90
4566;DHT22;2295;51.050;14.608;2022-07-01T10:41:41;24.50;99.90
4566;DHT22;2295;51.050;14.608;2022-07-01T10:44:12;24.20;99.90
4566;DHT22;2295;51.050;14.608;2022-07-01T10:46:45;23.90;99.90
4566;DHT22;2295;51.050;14.608;2022-07-01T10:49:17;23.30;99.90
4566;DHT22;2295;51.050;14.608;2022-07-01T10:51:50;22.90;99.90
4566;DHT22;2295;51.050;14.608;2022-07-01T10:54:47;22.70;99.90
4566;DHT22;2295;51.050;14.608;2022-07-01T10:57:21;22.20;99.90
4566;DHT22;2295;51.050;14.608;2022-07-01T10:59:52;21.90;99.90
4566;DHT22;2295;51.050;14.608;2022-07-01T11:02:21;21.60;99.90
4566;DHT22;2295;51.050;14.608;2022-07-01T11:04:52;21.60;99.90
4566;DHT22;2295;51.050;14.608;2022-07-01T11:07:25;21.70;99.90
4566;DHT22;2295;51.050;14.608;2022-07-01T11:09:53;21.80;99.90
4566;DHT22;2295;51.050;14.608;2022-07-01T11:12:22;21.80;99.90
4566;DHT22;2295;51.050;14.608;2022-07-01T11:14:51;22.10;99.90
4566;DHT22;2295;51.050;14.608;2022-07-01T11:17:21;22.90;99.90
4566;DHT22;2295;51.050;14.608;2022-07-01T11:19:51;23.40;99.90
4566;DHT22;2295;51.050;14.608;2022-07-01T11:22:20;24.50;99.90
4566;DHT22;2295;51.050;14.608;2022-07-01T11:24:52;25.40;99.90
4566;DHT22;2295;51.050;14.608;2022-07-01T11:27:20;26.60;99.90
4566;DHT22;2295;51.050;14.608;2022-07-01T11:29:51;27.20;99.90
4566;DHT22;2295;51.050;14.608;2022-07-01T11:32:30;27.80;99.90
4566;DHT22;2295;51.050;14.608;2022-07-01T11:35:01;27.50;99.90
4566;DHT22;2295;51.050;14.608;2022-07-01T11:37:31;27.20;99.90
4566;DHT22;2295;51.050;14.608;2022-07-01T11:40:18;26.80;99.90
4566;DHT22;2295;51.050;14.608;2022-07-01T11:42:46;26.40;99.90
4566;DHT22;2295;51.050;14.608;2022-07-01T11:45:22;26.50;99.90
4566;DHT22;2295;51.050;14.608;2022-07-01T11:47:51;26.70;99.90
4566;DHT22;2295;51.050;14.608;2022-07-01T11:50:21;26.80;99.90
4566;DHT22;2295;51.050;14.608;2022-07-01T11:52:53;26.50;99.90
4566;DHT22;2295;51.050;14.608;2022-07-01T11:55:21;26.20;99.90
4566;DHT22;2295;51.050;14.608;2022-07-01T11:58:05;26.20;99.90
4566;DHT22;2295;51.050;14.608;2022-07-01T12:00:33;25.80;99.90
4566;DHT22;2295;51.050;14.608;2022-07-01T12:03:02;25.50;99.90
4566;DHT22;2295;51.050;14.608;2022-07-01T12:05:31;24.70;99.90
4566;DHT22;2295;51.050;14.608;2022-07-01T12:08:04;24.30;99.90
4566;DHT22;2295;51.050;14.608;2022-07-01T12:10:33;24.20;99.90
4566;DHT22;2295;51.050;14.608;2022-07-01T12:13:22;24.10;99.90
4566;DHT22;2295;51.050;14.608;2022-07-01T12:15:50;23.90;99.90
4566;DHT22;2295;51.050;14.608;2022-07-01T12:18:19;23.60;99.90
4566;DHT22;2295;51.050;14.608;2022-07-01T12:20:49;23.30;99.90
4566;DHT22;2295;51.050;14.608;2022-07-01T12:23:18;23.20;99.90
4566;DHT22;2295;51.050;14.608;2022-07-01T12:25:48;23.00;99.90
4566;DHT22;2295;51.050;14.608;2022-07-01T12:28:27;22.80;99.90
4566;DHT22;2295;51.050;14.608;2022-07-01T12:31:00;22.90;99.90
4566;DHT22;2295;51.050;14.608;2022-07-01T12:33:28;22.30;99.90
4566;DHT22;2295;51.050;14.608;2022-07-01T12:36:01;21.90;99.90
4566;DHT22;2295;51.050;14.608;2022-07-01T12:43:29;21.40;99.90
4566;DHT22;2295;51.050;14.608;2022-07-01T12:45:59;20.20;99.90
4566;DHT22;2295;51.050;14.608;2022-07-01T12:48:28;19.90;99.90
4566;DHT22;2295;51.050;14.608;2022-07-01T12:50:59;19.60;99.90
4566;DHT22;2295;51.050;14.608;2022-07-01T12:53:28;19.70;99.90
4566;DHT22;2295;51.050;14.608;2022-07-01T12:55:57;19.70;99.90
4566;DHT22;2295;51.050;14.608;2022-07-01T12:58:28;19.50;99.90
4566;DHT22;2295;51.050;14.608;2022-07-01T13:00:57;19.30;99.90
4566;DHT22;2295;51.050;14.608;2022-07-01T13:03:28;19.20;99.90
4566;DHT22;2295;51.050;14.608;2022-07-01T13:15:55;19.00;99.90
4566;DHT22;2295;51.050;14.608;2022-07-01T13:18:23;18.20;99.90
4566;DHT22;2295;51.050;14.608;2022-07-01T13:43:12;18.10;99.90
4566;DHT22;2295;51.050;14.608;2022-07-01T13:45:42;17.50;99.90
4566;DHT22;2295;51.050;14.608;2022-07-01T13:48:11;17.40;99.90
4566;DHT22;2295;51.050;14.608;2022-07-01T13:50:39;17.40;99.90
4566;DHT22;2295;51.050;14.608;2022-07-01T13:53:07;17.40;99.90
4566;DHT22;2295;51.050;14.608;2022-07-01T13:55:35;17.40;99.90
4566;DHT22;2295;51.050;14.608;2022-07-01T13:58:05;17.40;99.90
4566;DHT22;2295;51.050;14.608;2022-07-01T14:00:33;17.50;99.90
4566;DHT22;2295;51.050;14.608;2022-07-01T14:03:02;17.40;99.90
4566;DHT22;2295;51.050;14.608;2022-07-01T14:05:30;17.40;99.90
4566;DHT22;2295;51.050;14.608;2022-07-01T14:07:58;17.50;99.90
4566;DHT22;2295;51.050;14.608;2022-07-01T14:10:26;17.60;99.90
4566;DHT22;2295;51.050;14.608;2022-07-01T14:12:55;17.70;99.90
4566;DHT22;2295;51.050;14.608;2022-07-01T14:15:25;18.00;99.90
4566;DHT22;2295;51.050;14.608;2022-07-01T14:17:53;18.30;99.90
4566;DHT22;2295;51.050;14.608;2022-07-01T14:20:21;18.30;99.90
4566;DHT22;2295;51.050;14.608;2022-07-01T14:22:49;18.40;99.90
4566;DHT22;2295;51.050;14.608;2022-07-01T14:25:21;18.30;99.90
4566;DHT22;2295;51.050;14.608;2022-07-01T14:27:50;18.20;99.90
4566;DHT22;2295;51.050;14.608;2022-07-01T14:30:18;18.00;99.90
4566;DHT22;2295;51.050;14.608;2022-07-01T14:32:47;17.90;99.90
4566;DHT22;2295;51.050;14.608;2022-07-01T14:35:15;17.90;99.90
4566;DHT22;2295;51.050;14.608;2022-07-01T14:37:44;18.00;99.90
4566;DHT22;2295;51.050;14.608;2022-07-01T14:40:12;18.00;99.90
4566;DHT22;2295;51.050;14.608;2022-07-01T14:42:40;18.00;99.90
4566;DHT22;2295;51.050;14.608;2022-07-01T14:45:09;18.00;99.90
4566;DHT22;2295;51.050;14.608;2022-07-01T14:47:42;18.00;99.90
4566;DHT22;2295;51.050;14.608;2022-07-01T14:50:12;18.10;99.90
4566;DHT22;2295;51.050;14.608;2022-07-01T14:52:40;18.00;99.90
4566;DHT22;2295;51.050;14.608;2022-07-01T14:55:08;17.90;99.90
4566;DHT22;2295;51.050;14.608;2022-07-01T14:57:37;17.80;99.90
4566;DHT22;2295;51.050;14.608;2022-07-01T15:00:07;17.80;99.90
4566;DHT22;2295;51.050;14.608;2022-07-01T15:02:37;17.80;99.90
4566;DHT22;2295;51.050;14.608;2022-07-01T15:05:06;17.70;99.90
4566;DHT22;2295;51.050;14.608;2022-07-01T15:07:36;17.60;99.90
4566;DHT22;2295;51.050;14.608;2022-07-01T15:10:04;17.40;99.90
4566;DHT22;2295;51.050;14.608;2022-07-01T15:12:33;17.20;99.90
4566;DHT22;2295;51.050;14.608;2022-07-01T15:15:01;17.10;99.90
4566;DHT22;2295;51.050;14.608;2022-07-01T15:17:29;16.80;99.90
4566;DHT22;2295;51.050;14.608;2022-07-01T15:19:57;16.70;99.90
4566;DHT22;2295;51.050;14.608;2022-07-01T15:22:26;16.70;99.90
4566;DHT22;2295;51.050;14.608;2022-07-01T15:24:55;16.60;99.90
4566;DHT22;2295;51.050;14.608;2022-07-01T15:27:23;16.50;99.90
4566;DHT22;2295;51.050;14.608;2022-07-01T15:29:51;16.50;99.90
4566;DHT22;2295;51.050;14.608;2022-07-01T15:32:20;16.40;99.90
4566;DHT22;2295;51.050;14.608;2022-07-01T15:34:48;16.30;99.90
4566;DHT22;2295;51.050;14.608;2022-07-01T15:42:26;16.10;99.90
4566;DHT22;2295;51.050;14.608;2022-07-01T15:44:55;16.20;99.90
4566;DHT22;2295;51.050;14.608;2022-07-01T15:47:23;16.00;99.90
4566;DHT22;2295;51.050;14.608;2022-07-01T15:50:09;16.50;99.90
4566;DHT22;2295;51.050;14.608;2022-07-01T15:55:12;16.10;99.90
4566;DHT22;2295;51.050;14.608;2022-07-01T15:57:41;16.00;99.90
4566;DHT22;2295;51.050;14.608;2022-07-01T16:00:11;16.00;99.90
4566;DHT22;2295;51.050;14.608;2022-07-01T16:02:41;16.00;99.90
4566;DHT22;2295;51.050;14.608;2022-07-01T16:05:09;16.00;99.90
4566;DHT22;2295;51.050;14.608;2022-07-01T16:07:39;16.00;99.90
4566;DHT22;2295;51.050;14.608;2022-07-01T16:10:10;16.10;99.90
4566;DHT22;2295;51.050;14.608;2022-07-01T16:12:42;16.10;99.90
4566;DHT22;2295;51.050;14.608;2022-07-01T16:15:11;16.10;99.90
4566;DHT22;2295;51.050;14.608;2022-07-01T16:17:40;16.10;99.90
4566;DHT22;2295;51.050;14.608;2022-07-01T16:20:15;16.10;99.90
4566;DHT22;2295;51.050;14.608;2022-07-01T16:22:47;16.10;99.90
4566;DHT22;2295;51.050;14.608;2022-07-01T16:25:17;16.20;99.90
4566;DHT22;2295;51.050;14.608;2022-07-01T16:27:48;16.20;99.90
4566;DHT22;2295;51.050;14.608;2022-07-01T16:30:20;16.10;99.90
4566;DHT22;2295;51.050;14.608;2022-07-01T16:32:49;16.10;99.90
4566;DHT22;2295;51.050;14.608;2022-07-01T16:35:18;16.10;99.90
4566;DHT22;2295;51.050;14.608;2022-07-01T16:37:53;16.10;99.90
4566;DHT22;2295;51.050;14.608;2022-07-01T16:40:27;16.10;99.90
4566;DHT22;2295;51.050;14.608;2022-07-01T16:42:58;16.10;99.90
4566;DHT22;2295;51.050;14.608;2022-07-01T16:45:30;16.10;99.90
4566;DHT22;2295;51.050;14.608;2022-07-01T16:48:02;16.10;99.90
4566;DHT22;2295;51.050;14.608;2022-07-01T16:50:35;16.20;99.90
4566;DHT22;2295;51.050;14.608;2022-07-01T16:53:16;16.20;99.90
4566;DHT22;2295;51.050;14.608;2022-07-01T16:55:45;16.20;99.90
4566;DHT22;2295;51.050;14.608;2022-07-01T16:58:20;16.20;99.90
4566;DHT22;2295;51.050;14.608;2022-07-01T17:00:49;16.10;99.90
4566;DHT22;2295;51.050;14.608;2022-07-01T17:03:18;16.10;99.90
4566;DHT22;2295;51.050;14.608;2022-07-01T17:05:49;16.10;99.90
4566;DHT22;2295;51.050;14.608;2022-07-01T17:08:19;16.10;99.90
4566;DHT22;2295;51.050;14.608;2022-07-01T17:10:48;16.00;99.90
4566;DHT22;2295;51.050;14.608;2022-07-01T17:13:19;15.90;99.90
4566;DHT22;2295;51.050;14.608;2022-07-01T17:15:48;15.90;99.90
4566;DHT22;2295;51.050;14.608;2022-07-01T17:18:16;15.80;99.90
4566;DHT22;2295;51.050;14.608;2022-07-01T17:20:45;15.80;99.90
4566;DHT22;2295;51.050;14.608;2022-07-01T17:23:21;15.70;99.90
4566;DHT22;2295;51.050;14.608;2022-07-01T17:25:54;15.80;99.90
4566;DHT22;2295;51.050;14.608;2022-07-01T17:28:42;15.70;99.90
4566;DHT22;2295;51.050;14.608;2022-07-01T17:31:17;15.80;99.90
4566;DHT22;2295;51.050;14.608;2022-07-01T17:33:47;15.70;99.90
4566;DHT22;2295;51.050;14.608;2022-07-01T17:36:19;15.70;99.90
4566;DHT22;2295;51.050;14.608;2022-07-01T17:38:53;15.60;99.90
4566;DHT22;2295;51.050;14.608;2022-07-01T17:41:28;15.60;99.90
4566;DHT22;2295;51.050;14.608;2022-07-01T17:44:02;15.60;99.90
4566;DHT22;2295;51.050;14.608;2022-07-01T17:46:32;15.60;99.90
4566;DHT22;2295;51.050;14.608;2022-07-01T17:49:02;15.70;99.90
4566;DHT22;2295;51.050;14.608;2022-07-01T17:51:31;15.70;99.90
4566;DHT22;2295;51.050;14.608;2022-07-01T17:54:00;15.70;99.90
4566;DHT22;2295;51.050;14.608;2022-07-01T17:56:29;15.80;99.90
4566;DHT22;2295;51.050;14.608;2022-07-01T17:59:01;15.80;99.90
4566;DHT22;2295;51.050;14.608;2022-07-01T18:01:32;15.80;99.90
4566;DHT22;2295;51.050;14.608;2022-07-01T18:04:02;15.80;99.90
4566;DHT22;2295;51.050;14.608;2022-07-01T18:06:31;15.80;99.90
4566;DHT22;2295;51.050;14.608;2022-07-01T18:09:00;15.80;99.90
4566;DHT22;2295;51.050;14.608;2022-07-01T18:11:36;15.80;99.90
4566;DHT22;2295;51.050;14.608;2022-07-01T18:14:16;15.80;99.90
4566;DHT22;2295;51.050;14.608;2022-07-01T18:16:57;15.80;99.90
4566;DHT22;2295;51.050;14.608;2022-07-01T18:19:44;15.80;99.90
4566;DHT22;2295;51.050;14.608;2022-07-01T18:22:22;15.80;99.90
4566;DHT22;2295;51.050;14.608;2022-07-01T18:24:54;15.80;99.90
4566;DHT22;2295;51.050;14.608;2022-07-01T18:27:26;15.90;99.90
4566;DHT22;2295;51.050;14.608;2022-07-01T18:30:03;15.90;99.90
4566;DHT22;2295;51.050;14.608;2022-07-01T18:32:34;15.90;99.90
4566;DHT22;2295;51.050;14.608;2022-07-01T18:35:04;15.80;99.90
4566;DHT22;2295;51.050;14.608;2022-07-01T18:37:41;15.80;99.90
4566;DHT22;2295;51.050;14.608;2022-07-01T18:40:10;15.80;99.90
4566;DHT22;2295;51.050;14.608;2022-07-01T18:42:39;15.70;99.90
4566;DHT22;2295;51.050;14.608;2022-07-01T18:45:10;15.70;99.90
4566;DHT22;2295;51.050;14.608;2022-07-01T18:47:39;15.60;99.90
4566;DHT22;2295;51.050;14.608;2022-07-01T18:50:09;15.60;99.90
4566;DHT22;2295;51.050;14.608;2022-07-01T18:52:38;15.60;99.90
4566;DHT22;2295;51.050;14.608;2022-07-01T18:55:07;15.60;99.90